Time;durP1;ratioP1;P1;durP2;ratioP2;P2;SDS_P1;SDS_P2;PMS_P1;PMS_P2;Temp;Humidity;BMP_temperature;BMP_pressure;BME280_temperature;BME280_humidity;BME280_pressure;Samples;Min_cycle;Max_cycle;Signal;HPM_P1;HPM_P2
2021/05/25 00:01:44;;;;;;;3.25;2.20;;;13.40;90.00;;;;;;5071954;28;20024;-88
2021/05/25 00:04:09;;;;;;;3.13;2.17;;;13.40;90.10;;;;;;5075409;28;20024;-88
2021/05/25 00:06:35;;;;;;;4.20;2.50;;;13.40;90.30;;;;;;5077037;28;20032;-88
2021/05/25 00:09:02;;;;;;;3.38;2.10;;;13.40;90.40;;;;;;5078251;28;20158;-88
2021/05/25 00:11:28;;;;;;;3.60;2.33;;;13.30;90.40;;;;;;5078904;28;20106;-89
2021/05/25 00:13:54;;;;;;;4.13;2.80;;;13.30;90.50;;;;;;5082885;28;20024;-88
2021/05/25 00:16:20;;;;;;;5.38;2.63;;;13.30;90.60;;;;;;5079497;28;20020;-87
2021/05/25 00:18:46;;;;;;;5.03;3.83;;;13.30;90.60;;;;;;5079447;28;20051;-87
2021/05/25 00:21:11;;;;;;;4.85;3.60;;;13.30;90.70;;;;;;5082454;28;20036;-88
2021/05/25 00:23:37;;;;;;;5.32;3.72;;;13.30;90.80;;;;;;5078884;28;20417;-88
2021/05/25 00:26:03;;;;;;;6.90;3.63;;;13.20;90.90;;;;;;5077241;28;20032;-86
2021/05/25 00:28:29;;;;;;;4.38;3.50;;;13.20;91.00;;;;;;5077447;28;20432;-88
2021/05/25 00:30:55;;;;;;;6.85;3.90;;;13.20;91.00;;;;;;5077293;28;20139;-88
2021/05/25 00:33:20;;;;;;;6.35;3.63;;;13.20;91.00;;;;;;5077587;28;20023;-88
2021/05/25 00:35:46;;;;;;;5.97;3.55;;;13.20;91.10;;;;;;5074884;28;20020;-87
2021/05/25 00:38:12;;;;;;;5.50;3.70;;;13.20;91.10;;;;;;5074916;28;20479;-88
2021/05/25 00:40:38;;;;;;;5.95;3.30;;;13.20;91.20;;;;;;5074314;28;20020;-88
2021/05/25 00:43:04;;;;;;;3.83;2.67;;;13.20;91.20;;;;;;5075207;28;20048;-88
2021/05/25 00:45:30;;;;;;;5.70;2.97;;;13.20;91.20;;;;;;5076548;28;20024;-87
2021/05/25 00:47:56;;;;;;;4.65;3.08;;;13.20;91.20;;;;;;5080201;28;20024;-88
2021/05/25 00:50:25;;;;;;;6.72;3.97;;;13.20;91.20;;;;;;5081733;28;20025;-89
2021/05/25 00:52:56;;;;;;;8.30;4.35;;;13.20;91.20;;;;;;5081484;28;20021;-87
2021/05/25 00:55:24;;;;;;;8.43;4.10;;;13.20;91.20;;;;;;5078768;28;20082;-89
2021/05/25 00:57:51;;;;;;;7.18;3.58;;;13.20;91.20;;;;;;5075996;28;20067;-88
2021/05/25 01:00:25;;;;;;;6.78;3.58;;;13.10;91.20;;;;;;5075658;28;20025;-87
2021/05/25 01:02:51;;;;;;;6.75;4.13;;;13.10;91.30;;;;;;5074257;28;20043;-87
2021/05/25 01:05:17;;;;;;;6.47;3.95;;;13.20;91.30;;;;;;5074778;28;20462;-88
2021/05/25 01:07:43;;;;;;;7.05;3.97;;;13.10;91.30;;;;;;5074018;28;20850;-89
2021/05/25 01:10:11;;;;;;;5.88;3.80;;;13.10;91.30;;;;;;5074120;28;20540;-88
2021/05/25 01:12:46;;;;;;;8.73;3.58;;;13.10;91.30;;;;;;5073806;28;20020;-87
2021/05/25 01:15:12;;;;;;;5.80;3.60;;;13.10;91.30;;;;;;5074130;28;20067;-88
2021/05/25 01:17:38;;;;;;;5.40;3.85;;;13.10;91.20;;;;;;5073898;28;20086;-88
2021/05/25 01:20:04;;;;;;;7.03;3.70;;;13.00;91.30;;;;;;5075100;28;20056;-86
2021/05/25 01:22:30;;;;;;;6.93;3.47;;;13.00;91.30;;;;;;5073926;28;20035;-88
2021/05/25 01:24:56;;;;;;;6.15;3.42;;;13.00;91.40;;;;;;5075633;28;20020;-88
2021/05/25 01:27:22;;;;;;;6.57;3.72;;;12.90;91.40;;;;;;5074151;28;20119;-88
2021/05/25 01:29:48;;;;;;;5.47;3.00;;;13.00;91.50;;;;;;5074968;28;20094;-88
2021/05/25 01:32:14;;;;;;;5.57;2.80;;;13.00;91.50;;;;;;5073755;28;20028;-88
2021/05/25 01:34:39;;;;;;;4.75;3.13;;;12.90;91.50;;;;;;5074718;28;20428;-87
2021/05/25 01:37:05;;;;;;;5.65;3.00;;;12.90;91.50;;;;;;5086480;28;20119;-88
2021/05/25 01:39:31;;;;;;;5.95;3.20;;;12.90;91.60;;;;;;5074162;28;20081;-87
2021/05/25 01:41:58;;;;;;;6.00;3.17;;;12.90;91.70;;;;;;5075348;28;20021;-88
2021/05/25 01:44:23;;;;;;;6.22;3.08;;;12.90;91.70;;;;;;5074079;28;20059;-88
2021/05/25 01:46:50;;;;;;;6.45;3.13;;;12.90;91.70;;;;;;5075012;28;20028;-87
2021/05/25 01:49:18;;;;;;;5.60;3.38;;;12.90;91.70;;;;;;5074254;28;20028;-88
2021/05/25 01:51:48;;;;;;;5.53;3.20;;;12.90;91.70;;;;;;5073361;28;20039;-89
2021/05/25 01:54:14;;;;;;;6.40;3.40;;;12.90;91.70;;;;;;5073647;28;20175;-88
2021/05/25 01:56:40;;;;;;;5.53;3.53;;;12.90;91.70;;;;;;5073064;28;20024;-88
2021/05/25 01:59:06;;;;;;;7.95;3.80;;;12.90;91.70;;;;;;5085695;28;20379;-88
2021/05/25 02:01:32;;;;;;;7.00;3.40;;;12.90;91.70;;;;;;5076572;28;20374;-88
2021/05/25 02:03:58;;;;;;;6.00;3.80;;;12.80;91.80;;;;;;5089220;28;20028;-88
2021/05/25 02:06:23;;;;;;;6.28;3.28;;;12.80;91.80;;;;;;5073190;28;20032;-88
2021/05/25 02:08:49;;;;;;;5.72;3.83;;;12.90;91.80;;;;;;5072681;28;20111;-88
2021/05/25 02:11:15;;;;;;;5.70;2.90;;;12.80;91.80;;;;;;5075006;28;20458;-87
2021/05/25 02:13:41;;;;;;;15.30;3.67;;;12.90;91.90;;;;;;5074574;28;20025;-87
2021/05/25 02:16:12;;;;;;;7.68;2.72;;;12.90;91.90;;;;;;5073945;28;20025;-87
2021/05/25 02:18:47;;;;;;;5.88;3.00;;;12.90;91.90;;;;;;5074582;28;20480;-86
2021/05/25 02:21:17;;;;;;;5.10;2.95;;;12.90;91.90;;;;;;5074709;28;20079;-88
2021/05/25 02:23:44;;;;;;;4.75;2.80;;;12.90;92.20;;;;;;5072915;28;20059;-85
2021/05/25 02:26:11;;;;;;;8.00;2.80;;;12.90;92.00;;;;;;5072977;28;20436;-88
2021/05/25 02:28:37;;;;;;;4.47;2.90;;;13.00;92.00;;;;;;5073665;28;20024;-88
2021/05/25 02:31:03;;;;;;;4.80;2.58;;;13.00;92.00;;;;;;5072305;28;20531;-89
2021/05/25 02:33:29;;;;;;;5.63;3.08;;;13.00;92.00;;;;;;5074615;28;20020;-88
2021/05/25 02:35:57;;;;;;;5.35;2.40;;;13.10;92.00;;;;;;5073821;28;20119;-88
2021/05/25 02:38:25;;;;;;;3.63;2.45;;;13.10;91.90;;;;;;5072461;28;20042;-88
2021/05/25 02:40:51;;;;;;;4.72;2.75;;;13.20;91.90;;;;;;5081370;28;20466;-88
2021/05/25 02:43:23;;;;;;;5.53;2.35;;;13.30;91.80;;;;;;5073452;28;20379;-88
2021/05/25 02:45:49;;;;;;;3.80;2.40;;;13.40;91.70;;;;;;5072654;28;20024;-88
2021/05/25 02:48:17;;;;;;;3.67;2.35;;;13.50;92.10;;;;;;5072495;28;20076;-89
2021/05/25 02:50:43;;;;;;;4.80;1.92;;;13.80;92.60;;;;;;5072310;28;20440;-88
2021/05/25 02:53:10;;;;;;;6.95;2.35;;;14.10;92.70;;;;;;5077551;28;20028;-88
2021/05/25 02:55:37;;;;;;;3.65;2.35;;;14.40;92.40;;;;;;5086551;28;20020;-88
2021/05/25 02:58:05;;;;;;;6.57;2.25;;;14.80;91.80;;;;;;5072088;28;20069;-88
2021/05/25 03:00:35;;;;;;;2.25;1.75;;;15.10;91.10;;;;;;5073082;28;20024;-88
2021/05/25 03:03:01;;;;;;;2.85;1.65;;;15.40;90.50;;;;;;5082479;28;20386;-90
2021/05/25 03:05:27;;;;;;;2.88;1.58;;;15.70;89.40;;;;;;5076284;28;20016;-89
2021/05/25 03:07:55;;;;;;;3.20;2.00;;;16.00;88.20;;;;;;5073685;28;20031;-89
2021/05/25 03:10:26;;;;;;;4.88;2.08;;;16.20;86.50;;;;;;5072826;28;20036;-88
2021/05/25 03:12:52;;;;;;;3.85;1.60;;;16.40;85.20;;;;;;5074735;28;20043;-89
2021/05/25 03:15:22;;;;;;;3.38;1.70;;;16.60;84.00;;;;;;5073367;28;20048;-89
2021/05/25 03:17:48;;;;;;;4.53;1.90;;;16.90;82.70;;;;;;5071695;28;20483;-89
2021/05/25 03:20:15;;;;;;;4.30;1.70;;;17.20;81.50;;;;;;5073692;28;20032;-89
2021/05/25 03:22:41;;;;;;;2.63;1.58;;;17.30;80.10;;;;;;5071171;28;20023;-89
2021/05/25 03:25:09;;;;;;;3.83;1.80;;;17.60;79.70;;;;;;5071859;28;20030;-89
2021/05/25 03:27:35;;;;;;;3.28;2.40;;;17.80;78.10;;;;;;5072469;28;20421;-89
2021/05/25 03:30:03;;;;;;;3.80;1.60;;;18.10;77.00;;;;;;5072080;28;20029;-89
2021/05/25 03:32:29;;;;;;;3.75;1.70;;;18.20;75.80;;;;;;5073461;28;20024;-86
2021/05/25 03:34:54;;;;;;;3.83;1.70;;;18.40;74.50;;;;;;5087341;28;20538;-89
2021/05/25 03:37:20;;;;;;;3.83;1.67;;;18.70;73.90;;;;;;5083541;28;20051;-90
2021/05/25 03:39:46;;;;;;;3.75;1.85;;;18.90;73.30;;;;;;5084051;28;20110;-89
2021/05/25 03:42:11;;;;;;;2.60;1.50;;;19.30;72.40;;;;;;5083886;28;20036;-89
2021/05/25 03:44:37;;;;;;;3.10;1.67;;;19.50;71.00;;;;;;5087140;28;20039;-85
2021/05/25 03:47:03;;;;;;;3.08;1.77;;;19.80;70.40;;;;;;5083498;28;20052;-86
2021/05/25 03:49:28;;;;;;;4.65;2.83;;;19.90;69.40;;;;;;5076950;28;20024;-86
2021/05/25 03:51:54;;;;;;;3.80;2.38;;;20.10;68.60;;;;;;5089736;28;20035;-87
2021/05/25 03:54:28;;;;;;;4.70;2.03;;;20.30;67.50;;;;;;5095218;28;20165;-88
2021/05/25 03:56:56;;;;;;;6.28;2.17;;;20.50;66.70;;;;;;5091386;28;20040;-83
2021/05/25 03:59:22;;;;;;;4.28;2.10;;;20.70;66.00;;;;;;5090753;28;20053;-86
2021/05/25 04:01:48;;;;;;;2.83;1.60;;;21.00;65.40;;;;;;5088835;28;20448;-85
2021/05/25 04:04:14;;;;;;;3.42;2.30;;;21.20;64.50;;;;;;5086075;28;20027;-84
2021/05/25 04:06:40;;;;;;;3.70;1.80;;;21.40;63.30;;;;;;5089403;28;20386;-81
2021/05/25 04:09:08;;;;;;;3.30;2.00;;;21.60;62.80;;;;;;5088507;28;20036;-85
2021/05/25 04:11:34;;;;;;;3.08;1.40;;;21.90;61.70;;;;;;5083407;28;20174;-86
2021/05/25 04:14:00;;;;;;;1.80;1.33;;;22.10;60.90;;;;;;5090672;28;20027;-87
2021/05/25 04:16:26;;;;;;;6.93;1.63;;;22.30;59.70;;;;;;5082954;28;20115;-86
2021/05/25 04:18:52;;;;;;;5.32;1.85;;;22.50;59.50;;;;;;5088408;28;20173;-89
2021/05/25 04:21:18;;;;;;;2.60;1.50;;;22.80;58.80;;;;;;5082429;28;20032;-78
2021/05/25 04:23:44;;;;;;;2.42;1.70;;;23.00;57.90;;;;;;5086308;28;20021;-81
2021/05/25 04:26:10;;;;;;;3.17;1.55;;;23.10;57.20;;;;;;5087328;28;20039;-81
2021/05/25 04:28:36;;;;;;;3.08;1.58;;;23.30;56.80;;;;;;5089549;28;20065;-70
2021/05/25 04:31:02;;;;;;;3.17;1.73;;;23.30;56.40;;;;;;5089324;28;20636;-75
2021/05/25 04:33:28;;;;;;;2.63;1.55;;;23.40;55.90;;;;;;5090533;28;20020;-67
2021/05/25 04:35:54;;;;;;;2.15;1.40;;;23.60;55.30;;;;;;5087883;28;20030;-70
2021/05/25 04:38:21;;;;;;;3.13;1.70;;;23.80;54.80;;;;;;5089528;28;20036;-77
2021/05/25 04:40:50;;;;;;;7.80;1.50;;;23.90;54.70;;;;;;5088171;28;20020;-75
2021/05/25 04:43:16;;;;;;;2.10;1.30;;;24.00;54.30;;;;;;5090365;28;20024;-72
2021/05/25 04:45:43;;;;;;;3.15;1.52;;;24.10;53.40;;;;;;5088571;28;20077;-72
2021/05/25 04:48:10;;;;;;;2.33;1.30;;;24.10;53.00;;;;;;5086201;28;20024;-74
2021/05/25 04:50:38;;;;;;;2.75;1.60;;;24.10;52.80;;;;;;5083766;28;20176;-78
2021/05/25 04:53:09;;;;;;;3.55;1.73;;;24.30;53.00;;;;;;5089259;28;20037;-75
2021/05/25 04:55:35;;;;;;;2.85;1.58;;;24.40;52.70;;;;;;5083117;28;20043;-74
2021/05/25 04:58:05;;;;;;;3.70;1.77;;;24.50;52.30;;;;;;5092050;28;20035;-75
2021/05/25 05:00:31;;;;;;;4.07;1.50;;;24.60;52.00;;;;;;5093409;28;20031;-76
2021/05/25 05:02:57;;;;;;;2.50;1.48;;;24.70;52.20;;;;;;5089596;28;20024;-77
2021/05/25 05:05:24;;;;;;;5.05;1.50;;;24.90;51.90;;;;;;5090151;28;20020;-75
2021/05/25 05:07:50;;;;;;;4.25;1.85;;;25.20;51.60;;;;;;5092881;28;20441;-77
2021/05/25 05:10:17;;;;;;;3.22;1.63;;;25.30;51.40;;;;;;5105784;28;20633;-77
2021/05/25 05:12:43;;;;;;;4.68;1.55;;;25.50;51.00;;;;;;5090975;28;20616;-75
2021/05/25 05:15:10;;;;;;;4.30;1.33;;;25.70;50.30;;;;;;5090100;28;20024;-74
2021/05/25 05:17:35;;;;;;;1.65;1.30;;;25.80;49.80;;;;;;5090880;28;20044;-76
2021/05/25 05:20:04;;;;;;;3.67;1.30;;;25.90;49.40;;;;;;5091711;28;20028;-75
2021/05/25 05:22:30;;;;;;;2.10;1.17;;;26.00;48.80;;;;;;5091464;28;20026;-75
2021/05/25 05:24:55;;;;;;;3.47;1.30;;;25.90;48.60;;;;;;5094025;28;20016;-75
2021/05/25 05:27:21;;;;;;;4.35;1.40;;;26.00;48.50;;;;;;5090068;28;20073;-74
2021/05/25 05:29:47;;;;;;;3.35;1.25;;;26.20;48.60;;;;;;5091634;28;20099;-75
2021/05/25 05:32:13;;;;;;;5.55;1.40;;;26.40;48.20;;;;;;5091349;28;20442;-76
2021/05/25 05:34:38;;;;;;;9.80;4.00;;;26.70;47.80;;;;;;5091129;28;20476;-75
2021/05/25 05:37:04;;;;;;;12.23;6.10;;;26.80;47.60;;;;;;5073076;28;20070;-75
2021/05/25 05:39:30;;;;;;;6.15;2.60;;;27.00;47.00;;;;;;5073312;28;20024;-77
2021/05/25 05:41:56;;;;;;;5.90;1.45;;;27.00;46.90;;;;;;5074623;28;20020;-74
2021/05/25 05:44:21;;;;;;;8.18;2.30;;;27.10;46.60;;;;;;5081612;28;20051;-75
2021/05/25 05:46:47;;;;;;;4.90;2.15;;;27.20;46.80;;;;;;5073517;28;20162;-75
2021/05/25 05:49:13;;;;;;;4.22;1.70;;;27.30;47.40;;;;;;5075172;28;20039;-75
2021/05/25 05:51:39;;;;;;;4.93;1.95;;;27.40;47.30;;;;;;5074218;28;20016;-75
2021/05/25 05:54:04;;;;;;;4.97;1.80;;;27.50;47.30;;;;;;5073351;28;20025;-75
2021/05/25 05:56:30;;;;;;;4.68;2.20;;;27.60;47.20;;;;;;5078461;28;20063;-77
2021/05/25 05:58:56;;;;;;;3.35;1.58;;;27.90;47.20;;;;;;5088465;28;20459;-75
2021/05/25 06:01:22;;;;;;;3.78;1.40;;;28.00;46.80;;;;;;5073316;28;20035;-75
2021/05/25 06:03:48;;;;;;;3.33;1.30;;;28.00;45.80;;;;;;5074501;28;20024;-75
2021/05/25 06:06:14;;;;;;;3.03;1.30;;;28.10;45.20;;;;;;5082823;28;20497;-75
2021/05/25 06:08:43;;;;;;;3.00;1.10;;;28.00;45.00;;;;;;5073784;28;20383;-75
2021/05/25 06:11:09;;;;;;;3.05;1.60;;;27.90;44.70;;;;;;5074271;28;20051;-75
2021/05/25 06:13:35;;;;;;;1.65;1.15;;;28.00;44.90;;;;;;5073871;28;20024;-75
2021/05/25 06:16:03;;;;;;;5.38;1.70;;;28.00;44.50;;;;;;5072494;28;20036;-75
2021/05/25 06:18:31;;;;;;;3.17;1.30;;;28.00;44.70;;;;;;5073424;28;20507;-75
2021/05/25 06:20:57;;;;;;;4.18;1.50;;;27.90;45.50;;;;;;5074097;28;20382;-75
2021/05/25 06:23:23;;;;;;;3.88;1.50;;;28.00;45.10;;;;;;5072295;28;20098;-75
2021/05/25 06:25:49;;;;;;;4.60;1.35;;;28.20;44.90;;;;;;5072267;28;20455;-75
2021/05/25 06:28:15;;;;;;;2.55;1.30;;;28.30;44.70;;;;;;5083385;28;20148;-76
2021/05/25 06:30:41;;;;;;;2.00;1.25;;;28.30;44.90;;;;;;5072633;28;20040;-75
2021/05/25 06:33:07;;;;;;;4.88;1.80;;;28.40;44.60;;;;;;5071927;28;20029;-75
2021/05/25 06:35:34;;;;;;;6.03;1.60;;;28.50;45.50;;;;;;5073528;28;20108;-75
2021/05/25 06:38:00;;;;;;;5.28;1.75;;;28.80;45.00;;;;;;5072964;28;20483;-75
2021/05/25 06:40:26;;;;;;;5.95;1.60;;;28.90;45.40;;;;;;5073571;28;20028;-77
2021/05/25 06:42:52;;;;;;;3.60;1.50;;;29.20;44.90;;;;;;5073562;28;20031;-75
2021/05/25 06:45:18;;;;;;;4.57;1.58;;;29.40;44.70;;;;;;5071353;28;20020;-75
2021/05/25 06:47:43;;;;;;;6.78;1.88;;;29.60;44.20;;;;;;5073667;28;20024;-75
2021/05/25 06:50:10;;;;;;;10.45;3.33;;;29.60;43.90;;;;;;5071785;28;20032;-75
2021/05/25 06:52:35;;;;;;;6.70;1.58;;;29.70;44.10;;;;;;5072765;28;20020;-75
2021/05/25 06:55:03;;;;;;;5.45;1.90;;;29.80;43.60;;;;;;5073051;28;20386;-75
2021/05/25 06:57:30;;;;;;;4.15;2.10;;;29.90;43.60;;;;;;5083552;28;20119;-75
2021/05/25 06:59:55;;;;;;;5.68;1.90;;;29.80;43.20;;;;;;5071324;28;20500;-75
2021/05/25 07:02:23;;;;;;;2.83;1.80;;;29.70;42.90;;;;;;5073456;28;20099;-75
2021/05/25 07:04:52;;;;;;;6.20;2.00;;;29.60;42.80;;;;;;5072232;28;20028;-75
2021/05/25 07:07:18;;;;;;;6.97;2.50;;;29.30;44.10;;;;;;5072785;28;20052;-75
2021/05/25 07:09:44;;;;;;;8.80;2.22;;;29.40;44.50;;;;;;5071302;28;20483;-76
2021/05/25 07:12:10;;;;;;;7.05;2.67;;;29.20;44.30;;;;;;5071904;28;20027;-75
2021/05/25 07:14:36;;;;;;;4.65;1.50;;;29.20;44.10;;;;;;5072187;28;20028;-76
2021/05/25 07:17:02;;;;;;;10.93;1.80;;;29.10;44.30;;;;;;5071391;28;20062;-76
2021/05/25 07:19:28;;;;;;;11.35;1.85;;;29.20;44.70;;;;;;5071328;28;20032;-73
2021/05/25 07:21:54;;;;;;;6.03;2.00;;;29.40;44.60;;;;;;5071338;28;20028;-75
2021/05/25 07:24:20;;;;;;;8.85;1.85;;;29.50;43.90;;;;;;5072762;28;20031;-75
2021/05/25 07:26:45;;;;;;;12.25;2.42;;;29.40;44.40;;;;;;5070859;28;20028;-76
2021/05/25 07:29:11;;;;;;;9.43;2.30;;;29.40;44.80;;;;;;5071875;28;20039;-75
2021/05/25 07:31:37;;;;;;;8.38;1.98;;;29.40;44.50;;;;;;5071746;28;20474;-75
2021/05/25 07:34:03;;;;;;;10.95;2.63;;;29.40;44.70;;;;;;5072253;28;20078;-77
2021/05/25 07:36:29;;;;;;;8.65;3.38;;;29.40;44.50;;;;;;5075389;28;20042;-75
2021/05/25 07:38:55;;;;;;;6.63;2.70;;;29.40;43.70;;;;;;5083688;28;20028;-75
2021/05/25 07:41:21;;;;;;;5.75;2.67;;;29.30;44.00;;;;;;5072355;28;20020;-75
2021/05/25 07:43:47;;;;;;;6.57;2.25;;;29.30;43.90;;;;;;5071077;28;20482;-75
2021/05/25 07:46:13;;;;;;;5.68;1.98;;;29.60;43.80;;;;;;5072482;28;20032;-75
2021/05/25 07:48:40;;;;;;;6.30;2.15;;;29.80;43.60;;;;;;5070648;28;20043;-75
2021/05/25 07:51:06;;;;;;;8.77;1.80;;;30.00;43.20;;;;;;5072796;28;20112;-75
2021/05/25 07:53:32;;;;;;;6.43;1.35;;;30.30;43.40;;;;;;5072412;28;20091;-75
2021/05/25 07:55:57;;;;;;;13.32;2.08;;;30.60;44.10;;;;;;5081064;28;20025;-76
2021/05/25 07:58:24;;;;;;;8.80;1.90;;;30.90;43.10;;;;;;5071258;28;20047;-75
2021/05/25 08:00:51;;;;;;;6.15;2.75;;;31.00;42.40;;;;;;5070880;28;20045;-75
2021/05/25 08:03:17;;;;;;;14.65;3.15;;;31.00;41.60;;;;;;5071519;28;20025;-75
2021/05/25 08:05:43;;;;;;;7.80;2.35;;;30.90;41.40;;;;;;5074914;28;20021;-75
2021/05/25 08:08:09;;;;;;;8.88;1.58;;;30.80;41.70;;;;;;5071808;28;20045;-75
2021/05/25 08:10:36;;;;;;;4.20;1.70;;;30.60;41.70;;;;;;5069422;28;20029;-76
2021/05/25 08:13:03;;;;;;;10.88;2.17;;;30.30;41.40;;;;;;5072238;28;20029;-76
2021/05/25 08:15:30;;;;;;;13.30;2.38;;;30.20;41.60;;;;;;5072130;28;20029;-75
2021/05/25 08:20:23;;;;;;;7.53;2.00;;;29.90;42.70;;;;;;5071866;28;20047;-75
2021/05/25 08:22:54;;;;;;;5.22;2.03;;;29.80;42.80;;;;;;5070419;28;20074;-75
2021/05/25 08:25:27;;;;;;;3.75;1.90;;;29.60;42.40;;;;;;5075303;28;20028;-75
2021/05/25 08:27:54;;;;;;;4.72;1.98;;;29.70;42.70;;;;;;5074807;28;20060;-75
2021/05/25 08:30:23;;;;;;;6.75;2.85;;;29.60;42.30;;;;;;5075969;28;20039;-75
2021/05/25 08:32:50;;;;;;;4.35;2.70;;;29.80;43.60;;;;;;5075515;28;20428;-75
2021/05/25 08:35:16;;;;;;;6.15;3.05;;;30.00;43.00;;;;;;5074239;28;20360;-75
2021/05/25 08:37:48;;;;;;;7.03;2.80;;;30.00;42.30;;;;;;5075581;28;20041;-75
2021/05/25 08:40:14;;;;;;;10.02;3.47;;;29.80;42.30;;;;;;5076387;28;20482;-75
2021/05/25 08:42:40;;;;;;;8.15;3.00;;;29.90;43.00;;;;;;5075246;28;20074;-75
2021/05/25 08:45:09;;;;;;;7.43;2.10;;;30.00;43.20;;;;;;5075717;28;20451;-74
2021/05/25 08:47:35;;;;;;;6.55;2.20;;;30.20;42.40;;;;;;5074359;28;20035;-75
2021/05/25 08:50:06;;;;;;;7.07;2.20;;;30.60;42.90;;;;;;5075173;28;20115;-76
2021/05/25 08:52:32;;;;;;;10.90;2.10;;;31.10;43.00;;;;;;5074087;28;20025;-75
2021/05/25 08:54:58;;;;;;;4.25;1.60;;;31.30;41.70;;;;;;5075742;28;20478;-75
2021/05/25 08:57:24;;;;;;;4.15;1.75;;;31.20;41.10;;;;;;5074907;28;20060;-75
2021/05/25 08:59:49;;;;;;;5.85;2.00;;;30.90;40.50;;;;;;5075290;28;20029;-75
2021/05/25 09:02:15;;;;;;;5.82;1.83;;;30.60;40.90;;;;;;5075103;28;20048;-75
2021/05/25 09:05:02;;;;;;;2.85;1.60;;;30.30;41.00;;;;;;5074807;28;20072;-75
2021/05/25 09:07:40;;;;;;;8.82;3.05;;;30.10;41.40;;;;;;5074274;28;20021;-74
2021/05/25 09:10:09;;;;;;;16.13;6.97;;;29.80;41.40;;;;;;5075192;28;20039;-76
2021/05/25 09:12:40;;;;;;;25.15;14.38;;;29.60;41.80;;;;;;5076225;28;20021;-75
2021/05/25 09:15:07;;;;;;;17.70;14.13;;;29.40;42.40;;;;;;5080217;28;20029;-75
2021/05/25 09:17:33;;;;;;;10.27;4.63;;;29.50;43.40;;;;;;5074809;28;20040;-75
2021/05/25 09:19:59;;;;;;;5.03;1.85;;;29.70;42.90;;;;;;5075347;28;20097;-75
2021/05/25 09:22:40;;;;;;;9.02;2.03;;;29.90;42.20;;;;;;5074637;28;20115;-77
2021/05/25 09:25:21;;;;;;;5.38;2.28;;;30.00;42.00;;;;;;5074132;28;20432;-75
2021/05/25 09:27:59;;;;;;;3.88;1.70;;;30.40;41.80;;;;;;5074757;28;20085;-75
2021/05/25 09:30:28;;;;;;;5.43;1.60;;;31.00;42.10;;;;;;5074911;28;20112;-77
2021/05/25 09:33:03;;;;;;;8.65;1.95;;;31.30;40.90;;;;;;5072862;28;20115;-76
2021/05/25 09:35:35;;;;;;;4.25;1.52;;;31.70;40.20;;;;;;5074007;28;20380;-75
2021/05/25 09:38:08;;;;;;;4.25;1.80;;;31.70;40.10;;;;;;5074038;28;20037;-76
2021/05/25 09:40:35;;;;;;;8.25;1.63;;;31.90;39.90;;;;;;5074618;28;20047;-75
2021/05/25 09:43:18;;;;;;;4.20;1.45;;;32.10;40.20;;;;;;5074358;28;20389;-75
2021/05/25 09:46:00;;;;;;;3.85;2.03;;;32.20;39.70;;;;;;5074786;28;20024;-75
2021/05/25 09:48:28;;;;;;;6.05;1.80;;;32.20;39.10;;;;;;5073655;28;20107;-77
2021/05/25 09:50:55;;;;;;;9.15;2.65;;;32.40;38.60;;;;;;5074620;28;20325;-75
2021/05/25 09:53:23;;;;;;;4.30;2.10;;;32.40;38.60;;;;;;5072905;28;20032;-75
2021/05/25 09:55:53;;;;;;;5.93;2.50;;;32.20;37.80;;;;;;5074724;28;20024;-75
2021/05/25 09:58:22;;;;;;;8.77;4.80;;;32.20;38.90;;;;;;5074421;28;20028;-76
2021/05/25 10:00:48;;;;;;;9.38;7.85;;;32.30;38.90;;;;;;5074020;28;20020;-76
2021/05/25 10:03:16;;;;;;;7.18;2.95;;;32.20;38.00;;;;;;5073710;28;20060;-75
2021/05/25 10:05:50;;;;;;;2.63;1.90;;;32.00;37.90;;;;;;5073966;28;20023;-75
2021/05/25 10:08:20;;;;;;;2.33;1.10;;;31.70;37.60;;;;;;5073217;28;20089;-75
2021/05/25 10:10:46;;;;;;;2.47;1.30;;;31.40;37.50;;;;;;5072743;28;20029;-75
2021/05/25 10:13:13;;;;;;;1.60;1.10;;;31.30;37.90;;;;;;5073922;28;20021;-75
2021/05/25 10:15:41;;;;;;;2.28;1.02;;;31.10;37.90;;;;;;5073816;28;20028;-75
2021/05/25 10:18:11;;;;;;;3.55;1.10;;;30.90;37.90;;;;;;5082275;28;20048;-75
2021/05/25 10:20:38;;;;;;;2.42;0.90;;;30.70;37.70;;;;;;5073525;28;20031;-75
2021/05/25 10:23:04;;;;;;;2.03;0.95;;;30.60;37.50;;;;;;5073828;28;20021;-75
2021/05/25 10:25:33;;;;;;;1.48;1.10;;;30.60;37.50;;;;;;5072212;28;20355;-75
2021/05/25 10:27:59;;;;;;;2.60;1.30;;;30.60;37.30;;;;;;5073394;28;20115;-75
2021/05/25 10:30:24;;;;;;;8.52;1.75;;;30.60;37.60;;;;;;5079280;28;20116;-76
2021/05/25 10:33:04;;;;;;;1.55;0.95;;;30.50;38.80;;;;;;5073731;28;20074;-75
2021/05/25 10:35:57;;;;;;;3.38;1.13;;;30.60;39.00;;;;;;5072240;28;20111;-75
2021/05/25 10:38:44;;;;;;;2.78;1.10;;;30.60;37.40;;;;;;5073379;28;20383;-76
2021/05/25 10:41:26;;;;;;;4.00;1.30;;;30.30;37.00;;;;;;5073593;28;20028;-75
2021/05/25 10:43:51;;;;;;;1.63;0.95;;;30.10;37.00;;;;;;5073908;28;20383;-76
2021/05/25 10:46:22;;;;;;;2.08;1.17;;;30.00;36.80;;;;;;5072077;28;20031;-73
2021/05/25 10:49:16;;;;;;;3.30;1.00;;;29.80;37.50;;;;;;5071337;28;20139;-74
2021/05/25 10:51:51;;;;;;;3.67;1.20;;;29.60;37.20;;;;;;5073236;28;20531;-74
2021/05/25 10:54:45;;;;;;;7.13;1.35;;;29.40;37.90;;;;;;5073099;28;20764;-74
2021/05/25 10:57:36;;;;;;;3.70;1.10;;;29.30;37.60;;;;;;5072763;28;20356;-74
2021/05/25 11:00:07;;;;;;;4.32;1.30;;;29.00;37.80;;;;;;5073276;28;20112;-75
2021/05/25 11:02:48;;;;;;;3.45;0.90;;;28.90;38.50;;;;;;5072438;28;20091;-74
2021/05/25 11:05:36;;;;;;;3.13;1.35;;;28.90;38.20;;;;;;5071624;28;20024;-74
2021/05/25 11:08:08;;;;;;;2.00;1.02;;;28.50;38.10;;;;;;5071821;28;20056;-74
2021/05/25 11:10:37;;;;;;;2.85;1.00;;;28.00;38.70;;;;;;5072207;28;20039;-74
2021/05/25 11:13:18;;;;;;;2.22;0.98;;;27.40;39.50;;;;;;5072704;28;20033;-74
2021/05/25 11:16:24;;;;;;;3.40;1.10;;;26.70;40.00;;;;;;5072689;28;20067;-74
2021/05/25 11:19:04;;;;;;;1.65;0.90;;;26.10;40.80;;;;;;5071555;28;20075;-74
2021/05/25 11:24:46;;;;;;;1.30;0.88;;;25.30;41.70;;;;;;5072798;28;20457;-74
2021/05/25 11:27:16;;;;;;;1.45;0.82;;;25.00;42.20;;;;;;5069064;28;20036;-73
2021/05/25 11:29:52;;;;;;;1.38;0.90;;;24.70;42.70;;;;;;5072984;28;20028;-73
2021/05/25 11:32:26;;;;;;;4.20;1.30;;;24.50;43.50;;;;;;5072499;28;20020;-74
2021/05/25 11:35:02;;;;;;;2.88;1.00;;;24.30;44.50;;;;;;5083783;28;20028;-73
2021/05/25 11:37:32;;;;;;;2.03;1.00;;;24.20;44.70;;;;;;5071607;28;20042;-73
2021/05/25 11:39:59;;;;;;;2.67;1.15;;;24.00;45.00;;;;;;5072494;28;20050;-73
2021/05/25 11:42:27;;;;;;;2.03;1.30;;;24.00;45.60;;;;;;5072334;28;20032;-75
2021/05/25 11:44:55;;;;;;;2.97;1.15;;;23.90;45.90;;;;;;5072492;28;20078;-74
2021/05/25 11:47:27;;;;;;;2.95;2.47;;;23.70;46.30;;;;;;5070686;28;20032;-76
2021/05/25 11:49:53;;;;;;;3.15;1.15;;;23.70;46.40;;;;;;5071141;28;20039;-74
2021/05/25 11:52:22;;;;;;;5.22;1.48;;;23.60;46.50;;;;;;5071388;28;20029;-75
2021/05/25 11:54:48;;;;;;;3.75;1.30;;;23.50;47.40;;;;;;5071883;28;20032;-74
2021/05/25 11:57:30;;;;;;;7.13;2.33;;;23.50;47.70;;;;;;5072086;28;20032;-75
2021/05/25 11:59:57;;;;;;;2.50;1.23;;;23.60;48.50;;;;;;5073768;28;20024;-75
2021/05/25 12:02:28;;;;;;;5.45;4.60;;;23.60;48.00;;;;;;5075137;28;20025;-75
2021/05/25 12:05:09;;;;;;;4.25;1.10;;;23.60;47.90;;;;;;5076955;28;20043;-75
2021/05/25 12:07:36;;;;;;;5.18;1.30;;;23.50;48.10;;;;;;5079074;28;20035;-74
2021/05/25 12:10:08;;;;;;;3.55;1.30;;;23.50;48.40;;;;;;5076405;28;20021;-75
2021/05/25 12:12:34;;;;;;;3.28;1.27;;;23.60;48.50;;;;;;5076036;28;20024;-74
2021/05/25 12:15:10;;;;;;;1.58;1.00;;;23.60;48.50;;;;;;5076837;28;20049;-74
2021/05/25 12:17:38;;;;;;;2.33;1.10;;;23.70;48.40;;;;;;5076027;28;20424;-74
2021/05/25 12:20:05;;;;;;;2.28;1.27;;;23.70;48.30;;;;;;5076138;28;20332;-74
2021/05/25 12:22:39;;;;;;;5.55;1.30;;;23.70;48.90;;;;;;5074275;28;20082;-74
2021/05/25 12:25:20;;;;;;;5.03;2.05;;;23.80;48.20;;;;;;5076587;28;20486;-74
2021/05/25 12:27:47;;;;;;;1.40;1.20;;;23.80;48.40;;;;;;5074505;28;20074;-74
2021/05/25 12:30:16;;;;;;;3.65;1.30;;;23.80;48.10;;;;;;5083251;28;20029;-74
2021/05/25 12:32:46;;;;;;;4.10;1.70;;;23.70;48.10;;;;;;5074021;28;20048;-74
2021/05/25 12:35:13;;;;;;;3.35;1.80;;;23.70;48.40;;;;;;5075746;28;20465;-75
2021/05/25 12:37:39;;;;;;;6.82;2.67;;;23.60;48.60;;;;;;5074929;28;20045;-75
2021/05/25 12:40:11;;;;;;;2.78;1.20;;;23.60;49.00;;;;;;5079215;28;20040;-74
2021/05/25 12:42:41;;;;;;;3.78;1.10;;;23.60;49.80;;;;;;5083668;28;20029;-75
2021/05/25 12:45:07;;;;;;;4.05;1.40;;;23.60;49.20;;;;;;5075870;28;20025;-74
2021/05/25 12:47:52;;;;;;;4.72;1.30;;;23.60;48.80;;;;;;5075526;28;20040;-75
2021/05/25 12:50:27;;;;;;;1.85;1.10;;;23.60;49.10;;;;;;5075241;28;20031;-74
2021/05/25 12:53:17;;;;;;;3.75;1.70;;;23.50;49.30;;;;;;5074538;28;20393;-75
2021/05/25 12:55:52;;;;;;;2.55;1.65;;;23.50;49.30;;;;;;5086819;28;20028;-75
2021/05/25 12:58:40;;;;;;;3.10;1.50;;;23.50;49.40;;;;;;5074561;28;20029;-75